Time;durP1;ratioP1;P1;durP2;ratioP2;P2;SDS_P1;SDS_P2;PMS_P1;PMS_P2;Temp;Humidity;BMP_temperature;BMP_pressure;BME280_temperature;BME280_humidity;BME280_pressure;Samples;Min_cycle;Max_cycle;Signal;HPM_P1;HPM_P2
2021/12/07 00:01:28;;;;;;;21.73;11.60;;;;;;;-1.16;84.16;100801.45;1702710;82;21402;-75
2021/12/07 00:03:55;;;;;;;21.65;10.43;;;;;;;-1.16;84.18;100803.99;1735712;82;21045;-74
2021/12/07 00:06:22;;;;;;;20.05;11.05;;;;;;;-1.17;84.19;100804.40;1668532;83;21067;-74
2021/12/07 00:08:54;;;;;;;20.08;11.43;;;;;;;-1.16;84.21;100802.73;1724605;82;21044;-74
2021/12/07 00:11:17;;;;;;;14.25;9.35;;;;;;;-1.14;84.25;100797.30;1684231;84;20991;-74
2021/12/07 00:13:43;;;;;;;;;;;;;;;-1.17;84.08;100798.06;1669152;83;21084;-74
2021/12/07 00:16:10;;;;;;;;;;;;;;;-1.20;84.07;100800.48;1668691;85;20253;-75
2021/12/07 00:18:38;;;;;;;15.55;10.08;;;;;;;-1.21;84.04;100796.63;1715312;82;20216;-75
2021/12/07 00:21:07;;;;;;;23.85;10.68;;;;;;;-1.22;84.09;100799.58;1704680;82;20909;-75
2021/12/07 00:23:36;;;;;;;23.15;11.35;;;;;;;-1.24;84.01;100793.98;1720485;82;20961;-75
2021/12/07 00:26:02;;;;;;;20.02;10.82;;;;;;;-1.28;84.00;100801.90;1741407;82;20933;-75
2021/12/07 00:28:29;;;;;;;19.32;10.23;;;;;;;-1.30;84.02;100798.45;1713992;82;20903;-75
2021/12/07 00:30:57;;;;;;;14.58;9.55;;;;;;;-1.31;84.03;100800.52;1722784;82;23590;-75
2021/12/07 00:35:53;;;;;;;17.27;9.98;;;;;;;-1.35;83.95;100812.23;1690613;84;20897;-75
2021/12/07 00:38:24;;;;;;;15.50;9.43;;;;;;;-1.35;84.03;100815.17;1681788;84;20928;-75
2021/12/07 00:40:53;;;;;;;17.07;9.63;;;;;;;-1.36;84.00;100821.06;1699031;84;20922;-75
2021/12/07 00:43:19;;;;;;;12.68;9.30;;;;;;;-1.37;84.00;100817.66;1702776;84;20939;-75
2021/12/07 00:45:46;;;;;;;20.25;10.60;;;;;;;-1.38;83.97;100813.39;1680427;84;21440;-75
2021/12/07 00:48:15;;;;;;;13.08;9.10;;;;;;;-1.38;84.03;100806.19;1671216;85;21327;-75
2021/12/07 00:50:46;;;;;;;14.13;9.25;;;;;;;-1.39;83.92;100801.93;1677994;85;21125;-75
2021/12/07 00:53:13;;;;;;;14.85;9.50;;;;;;;-1.40;83.97;100802.33;1678390;84;20924;-75
2021/12/07 00:55:47;;;;;;;17.52;9.75;;;;;;;-1.40;84.02;100798.53;1686789;84;21002;-75
2021/12/07 00:58:21;;;;;;;14.78;9.35;;;;;;;-1.38;84.02;100795.64;1700234;84;21042;-75
2021/12/07 01:00:54;;;;;;;16.40;9.68;;;;;;;-1.40;83.94;100799.80;1678453;84;21023;-75
2021/12/07 01:03:22;;;;;;;16.10;10.10;;;;;;;-1.40;83.96;100800.20;1678683;83;21563;-75
2021/12/07 01:05:52;;;;;;;17.48;10.72;;;;;;;-1.42;83.97;100788.73;1668532;84;21022;-75
2021/12/07 01:24:48;;;;;;;14.20;9.63;;;;;;;-1.52;83.86;100774.41;1723761;82;21051;-75
2021/12/07 01:27:18;;;;;;;15.30;9.35;;;;;;;-1.52;83.92;100776.95;1715444;82;21091;-75
2021/12/07 01:29:53;;;;;;;15.55;8.88;;;;;;;-1.56;83.87;100774.70;1716982;82;21107;-75
2021/12/07 01:37:55;;;;;;;10.33;7.07;;;;;;;-1.59;83.87;100768.70;1714609;82;20930;-75
2021/12/07 01:43:25;;;;;;;13.53;8.05;;;;;;;-1.63;83.82;100767.73;1656535;84;20927;-75
2021/12/07 01:45:53;;;;;;;13.00;8.85;;;;;;;-1.66;83.81;100761.28;1663254;84;20928;-75
2021/12/07 01:48:04;;;;;;;18.57;9.58;;;;;;;-1.68;83.80;100762.49;1695569;84;21368;-75
2021/12/07 01:53:04;;;;;;;13.88;8.28;;;;;;;-1.71;83.77;100762.78;1726109;82;20904;-74
2021/12/07 02:00:51;;;;;;;13.80;8.80;;;;;;;-1.74;83.75;100760.14;1739030;81;20973;-75
2021/12/07 02:03:20;;;;;;;12.65;8.63;;;;;;;-1.75;83.74;100763.48;1720688;82;21457;-75
2021/12/07 02:05:47;;;;;;;13.22;8.28;;;;;;;-1.77;83.71;100755.83;1731607;82;21038;-75
2021/12/07 02:08:14;;;;;;;14.13;8.95;;;;;;;-1.80;83.68;100753.18;1719345;82;21013;-75
2021/12/07 02:10:41;;;;;;;14.05;8.08;;;;;;;-1.80;83.70;100754.85;1731899;82;20992;-75
2021/12/07 02:14:14;;;;;;;13.75;7.85;;;;;;;-1.82;83.70;100753.53;1737377;82;21001;-75
2021/12/07 02:15:57;;;;;;;14.98;8.73;;;;;;;-1.83;83.65;100759.81;1710943;82;21110;-75
2021/12/07 02:18:24;;;;;;;13.25;7.92;;;;;;;-1.85;83.68;100763.96;1727290;82;21564;-75
2021/12/07 02:20:51;;;;;;;14.87;8.43;;;;;;;-1.88;83.64;100767.65;1746999;82;20962;-75
2021/12/07 02:23:17;;;;;;;12.88;7.70;;;;;;;-1.88;83.75;100761.31;1748371;82;20926;-75
2021/12/07 02:25:44;;;;;;;13.43;8.50;;;;;;;-1.86;83.73;100760.97;1723219;81;20922;-75
2021/12/07 02:28:15;;;;;;;11.90;8.13;;;;;;;-1.87;83.70;100762.64;1691722;83;20874;-75
2021/12/07 02:30:44;;;;;;;14.83;7.70;;;;;;;-1.84;83.78;100765.28;1723953;82;20944;-75
2021/12/07 02:33:10;;;;;;;12.68;9.00;;;;;;;-1.80;83.84;100762.45;1684876;83;21308;-75
2021/12/07 02:35:39;;;;;;;14.18;8.63;;;;;;;-1.76;83.79;100765.16;1707723;82;20929;-75
2021/12/07 02:38:05;;;;;;;14.45;8.50;;;;;;;-1.77;83.67;100773.56;1669703;83;20883;-75
2021/12/07 02:40:32;;;;;;;;;;;;;;;-1.76;83.72;100772.77;1729449;81;20939;-75
2021/12/07 02:42:58;;;;;;;11.93;7.85;;;;;;;-1.74;83.71;100775.34;1721257;82;20102;-75
2021/12/07 02:45:25;;;;;;;14.80;8.83;;;;;;;-1.73;83.69;100765.67;1712893;82;20956;-75
2021/12/07 02:47:52;;;;;;;14.50;8.18;;;;;;;-1.75;83.65;100762.22;1682743;83;20964;-75
2021/12/07 02:50:19;;;;;;;14.65;7.92;;;;;;;-1.76;83.60;100755.42;1688885;83;25045;-75
2021/12/07 02:52:48;;;;;;;14.53;8.73;;;;;;;-1.79;83.61;100757.44;1720443;82;20940;-75
2021/12/07 02:55:15;;;;;;;10.58;7.53;;;;;;;-1.78;83.65;100755.77;1749782;82;21359;-75
2021/12/07 02:57:43;;;;;;;13.25;7.45;;;;;;;-1.79;83.66;100756.17;1709179;83;21470;-75
2021/12/07 03:00:17;;;;;;;11.28;7.45;;;;;;;-1.78;83.68;100764.64;1719728;81;20917;-75
2021/12/07 03:02:52;;;;;;;11.97;7.65;;;;;;;-1.78;83.67;100764.64;1703084;82;20996;-75
2021/12/07 03:05:32;;;;;;;14.28;8.38;;;;;;;-1.79;83.68;100765.45;1706958;82;21016;-75
2021/12/07 03:26:54;;;;;;;11.80;7.67;;;;;;;-1.88;83.57;100765.98;1703070;82;21277;-75
2021/12/07 03:29:21;;;;;;;12.50;7.97;;;;;;;-1.89;83.58;100764.66;1669421;84;21486;-75
2021/12/07 03:31:47;;;;;;;10.48;7.10;;;;;;;-1.89;83.52;100773.13;1680970;84;25777;-75
2021/12/07 03:34:14;;;;;;;10.00;7.30;;;;;;;-1.90;83.51;100774.33;1644887;86;21028;-75
2021/12/07 03:36:42;;;;;;;11.10;7.87;;;;;;;-1.91;83.54;100770.07;1689745;83;20991;-75
2021/12/07 03:39:08;;;;;;;;;;;;;;;-1.92;83.51;100764.55;1703634;83;21038;-75
2021/12/07 03:41:35;;;;;;;13.03;6.97;;;;;;;-1.92;83.45;100764.55;1703372;82;20842;-76
2021/12/07 03:44:04;;;;;;;8.63;7.17;;;;;;;-1.94;83.49;100757.29;1677405;84;21634;-75
2021/12/07 03:46:30;;;;;;;16.02;7.65;;;;;;;-1.93;83.59;100756.08;1685823;84;21077;-75
2021/12/07 03:48:57;;;;;;;;;;;;;;;-1.91;83.56;100749.80;1679452;84;21042;-75
2021/12/07 03:51:24;;;;;;;12.55;8.40;;;;;;;-1.92;83.49;100740.06;1702690;82;20147;-75
2021/12/07 03:53:50;;;;;;;12.82;8.05;;;;;;;-1.93;83.45;100728.61;1687457;84;21064;-75
2021/12/07 03:56:16;;;;;;;12.05;7.45;;;;;;;-1.93;83.46;100731.14;1697230;82;21051;-75
2021/12/07 03:58:44;;;;;;;10.68;7.72;;;;;;;-1.94;83.54;100731.95;1700576;84;21075;-74
2021/12/07 04:01:13;;;;;;;15.00;9.25;;;;;;;-1.94;83.52;100734.08;1657278;85;21094;-74
2021/12/07 04:03:41;;;;;;;11.10;7.78;;;;;;;-1.94;83.43;100742.09;1658636;84;21907;-74
2021/12/07 04:06:07;;;;;;;12.70;8.30;;;;;;;-1.96;83.42;100743.30;1631479;87;20891;-74
2021/12/07 04:08:41;;;;;;;12.95;8.05;;;;;;;-1.97;83.45;100743.24;1639371;86;21517;-74
2021/12/07 04:11:17;;;;;;;11.03;7.30;;;;;;;-1.97;83.43;100747.05;1654123;85;20973;-74
2021/12/07 04:13:45;;;;;;;11.35;7.78;;;;;;;-1.98;83.42;100752.92;1652458;84;21760;-74
2021/12/07 04:16:13;;;;;;;12.55;7.40;;;;;;;-1.99;83.42;100754.59;1631003;87;21413;-74
2021/12/07 04:18:40;;;;;;;10.75;7.45;;;;;;;-2.00;83.41;100754.98;1670231;85;20952;-74
2021/12/07 04:21:07;;;;;;;12.05;7.92;;;;;;;-2.00;83.43;100760.06;1669035;85;20968;-75
2021/12/07 04:23:34;;;;;;;10.63;7.30;;;;;;;-2.02;83.39;100754.07;1670193;85;21389;-75
2021/12/07 04:26:04;;;;;;;9.23;7.75;;;;;;;-2.02;83.41;100752.80;1670087;85;20924;-75
2021/12/07 04:28:30;;;;;;;9.95;7.47;;;;;;;-2.04;83.38;100752.29;1670292;85;21472;-75
2021/12/07 04:30:57;;;;;;;12.93;8.10;;;;;;;-2.06;83.36;100745.03;1666919;84;25100;-75
2021/12/07 04:33:25;;;;;;;13.15;7.83;;;;;;;-2.07;83.41;100742.04;1662728;84;21370;-73
2021/12/07 04:35:51;;;;;;;10.75;7.37;;;;;;;-2.07;83.47;100739.11;1670135;85;21555;-74
2021/12/07 04:38:18;;;;;;;12.05;7.03;;;;;;;-2.08;83.42;100742.45;1670238;85;21445;-74
2021/12/07 04:40:47;;;;;;;11.85;7.83;;;;;;;-2.06;83.49;100748.43;1670361;85;21460;-74
2021/12/07 04:43:13;;;;;;;12.15;7.67;;;;;;;-2.05;83.50;100756.48;1670382;85;21478;-74
2021/12/07 04:59:15;;;;;;;13.03;7.90;;;;;;;-2.04;83.37;100763.28;1592571;88;21541;-75
2021/12/07 05:01:42;;;;;;;10.08;7.78;;;;;;;-2.05;83.32;100765.36;1568652;89;21593;-75
2021/12/07 05:04:14;;;;;;;;;;;;;;;-2.03;83.43;100762.87;1612792;88;21407;-75
2021/12/07 05:06:41;;;;;;;8.70;6.55;;;;;;;-2.04;83.35;100767.09;1618833;88;20317;-75
2021/12/07 05:09:22;;;;;;;10.75;7.83;;;;;;;-2.05;83.31;100765.36;1620777;86;20965;-75
2021/12/07 05:11:48;;;;;;;15.00;7.78;;;;;;;-2.05;83.33;100758.16;1616707;86;21589;-75
2021/12/07 05:14:19;;;;;;;9.48;7.50;;;;;;;-2.11;83.27;100757.56;1583442;90;21759;-75
2021/12/07 05:16:54;;;;;;;8.50;7.47;;;;;;;-2.12;83.26;100763.84;1616130;88;21749;-75
2021/12/07 05:24:29;;;;;;;13.40;8.25;;;;;;;-2.14;83.35;100748.58;1576965;90;21024;-75
2021/12/07 05:37:59;;;;;;;13.65;7.45;;;;;;;-2.23;83.19;100772.30;1666513;86;21013;-75
2021/12/07 05:40:32;;;;;;;11.12;7.28;;;;;;;-2.26;83.19;100781.05;1651315;84;21536;-75
2021/12/07 05:43:00;;;;;;;11.97;7.30;;;;;;;-2.28;83.16;100781.80;1668675;85;21442;-75
2021/12/07 05:45:32;;;;;;;13.25;6.97;;;;;;;-2.32;83.11;100785.87;1631324;87;20929;-75
2021/12/07 05:48:02;;;;;;;9.80;6.67;;;;;;;-2.37;83.07;100790.77;1605833;89;21568;-75
2021/12/07 05:50:32;;;;;;;9.50;6.65;;;;;;;-2.41;83.07;100798.18;1630661;87;20953;-75
2021/12/07 05:53:01;;;;;;;10.32;6.83;;;;;;;-2.45;83.07;100801.40;1604661;87;20936;-75
2021/12/07 05:55:28;;;;;;;11.12;7.20;;;;;;;-2.46;83.12;100809.80;1629152;86;20959;-75
2021/12/07 05:57:55;;;;;;;12.73;7.25;;;;;;;-2.49;83.10;100805.47;1630962;87;20944;-75
2021/12/07 06:00:28;;;;;;;10.10;7.25;;;;;;;-2.52;83.05;100807.02;1630542;87;20948;-75
2021/12/07 06:02:58;;;;;;;8.80;6.60;;;;;;;-2.54;83.02;100816.22;1641557;86;20950;-77
2021/12/07 06:05:26;;;;;;;8.70;6.67;;;;;;;-2.59;83.04;100812.23;1647944;85;20976;-77
2021/12/07 06:07:52;;;;;;;11.90;7.22;;;;;;;-2.60;83.10;100818.54;1663705;85;20960;-77
2021/12/07 06:10:20;;;;;;;10.85;7.28;;;;;;;-2.63;83.01;100818.41;1670437;85;20889;-77
2021/12/07 06:12:47;;;;;;;12.53;6.92;;;;;;;-2.66;83.01;100824.22;1670140;85;20916;-77
2021/12/07 06:15:17;;;;;;;10.82;7.30;;;;;;;-2.68;83.06;100827.95;1670852;85;21373;-77
2021/12/07 06:17:41;;;;;;;10.45;7.92;;;;;;;-2.70;83.03;100828.30;1670418;85;20904;-77
2021/12/07 06:20:09;;;;;;;16.25;8.55;;;;;;;-2.70;83.03;100837.15;1670122;85;20982;-77
2021/12/07 06:22:37;;;;;;;13.03;6.87;;;;;;;-2.71;83.10;100836.69;1712173;83;20920;-77
2021/12/07 06:25:05;;;;;;;9.95;7.22;;;;;;;-2.71;83.07;100840.48;1702120;83;20959;-77
2021/12/07 06:27:32;;;;;;;9.88;7.05;;;;;;;-2.70;83.12;100836.28;1692197;83;21008;-76
2021/12/07 06:30:00;;;;;;;7.92;6.22;;;;;;;-2.70;83.05;100842.61;1702392;83;21480;-76
2021/12/07 06:32:26;;;;;;;7.97;6.42;;;;;;;-2.71;83.08;100847.21;1660290;84;22216;-77
2021/12/07 06:34:53;;;;;;;9.25;6.45;;;;;;;-2.72;83.08;100850.14;1668719;85;25162;-77
2021/12/07 06:37:20;;;;;;;8.43;6.05;;;;;;;-2.73;83.09;100853.87;1664873;84;21385;-77
2021/12/07 06:39:46;;;;;;;6.90;6.05;;;;;;;-2.74;83.09;100851.74;1658271;84;21010;-77
2021/12/07 06:42:13;;;;;;;8.55;5.75;;;;;;;-2.73;83.12;100848.41;1653588;84;21092;-77
2021/12/07 06:44:40;;;;;;;9.43;6.60;;;;;;;-2.72;83.14;100853.94;1658140;84;21071;-77
2021/12/07 06:47:06;;;;;;;10.23;6.28;;;;;;;-2.72;83.05;100847.61;1647386;84;21566;-77
2021/12/07 06:49:32;;;;;;;9.48;6.55;;;;;;;-2.73;83.06;100856.41;1644712;84;21051;-77
2021/12/07 06:51:58;;;;;;;;;;;;;;;-2.73;83.04;100856.00;1648364;84;21090;-77
2021/12/07 06:54:26;;;;;;;7.87;5.75;;;;;;;-2.74;83.04;100859.34;1625848;87;20438;-77
2021/12/07 06:56:53;;;;;;;9.85;6.35;;;;;;;-2.74;83.03;100860.60;1639396;84;21100;-77
2021/12/07 06:59:20;;;;;;;10.68;6.87;;;;;;;-2.75;82.99;100865.59;1648313;85;21479;-77
2021/12/07 07:01:47;;;;;;;10.32;6.90;;;;;;;-2.76;82.97;100859.67;1658246;84;21110;-77
2021/12/07 07:04:14;;;;;;;9.83;6.83;;;;;;;-2.74;83.05;100861.00;1654103;84;21143;-77
2021/12/07 07:06:42;;;;;;;11.28;7.22;;;;;;;-2.72;83.03;100863.20;1672868;84;21041;-77
2021/12/07 07:09:09;;;;;;;13.22;8.53;;;;;;;-2.71;83.01;100859.46;1670652;84;20895;-77
2021/12/07 07:11:37;;;;;;;14.75;8.03;;;;;;;-2.71;83.00;100865.79;1670057;84;21529;-77
2021/12/07 07:14:04;;;;;;;18.95;9.65;;;;;;;-2.68;83.00;100866.31;1672145;84;20969;-77
2021/12/07 07:16:30;;;;;;;21.48;10.75;;;;;;;-2.70;82.91;100870.05;1675840;84;20887;-77
2021/12/07 07:18:57;;;;;;;26.35;11.55;;;;;;;-2.69;82.90;100872.18;1704826;81;20974;-77
2021/12/07 07:21:24;;;;;;;32.48;13.68;;;;;;;-2.69;82.91;100867.12;1708066;81;21515;-77
2021/12/07 07:23:52;;;;;;;40.15;15.70;;;;;;;-2.67;82.97;100860.45;1717997;81;20923;-77
2021/12/07 07:26:19;;;;;;;42.27;16.17;;;;;;;-2.63;82.99;100867.77;1704958;81;20920;-77
2021/12/07 07:28:46;;;;;;;44.90;17.40;;;;;;;-2.61;82.96;100873.77;1704754;82;20892;-77
2021/12/07 07:31:13;;;;;;;43.60;17.48;;;;;;;-2.58;82.98;100864.99;1698722;82;20998;-77
2021/12/07 07:33:40;;;;;;;29.80;14.45;;;;;;;-2.58;82.88;100865.86;1720398;81;20927;-77
2021/12/07 07:36:06;;;;;;;35.98;14.80;;;;;;;-2.55;82.98;100868.92;1714007;81;20967;-76
2021/12/07 07:38:33;;;;;;;28.23;13.25;;;;;;;-2.55;82.87;100879.91;1711441;81;20920;-77
2021/12/07 07:41:07;;;;;;;20.52;11.40;;;;;;;-2.53;82.86;100883.77;1704848;81;20923;-77
2021/12/07 07:43:33;;;;;;;21.75;10.53;;;;;;;-2.53;82.85;100875.77;1704777;82;20907;-76
2021/12/07 07:46:00;;;;;;;21.17;10.35;;;;;;;-2.50;82.87;100880.09;1713579;82;20911;-76
2021/12/07 07:48:32;;;;;;;15.93;9.08;;;;;;;-2.51;82.82;100888.09;1708249;81;20915;-76
2021/12/07 07:50:58;;;;;;;16.90;10.05;;;;;;;-2.47;82.90;100887.81;1704665;81;20948;-76
2021/12/07 07:53:24;;;;;;;14.15;9.25;;;;;;;-2.47;82.76;100888.68;1713424;81;20959;-73
2021/12/07 07:55:51;;;;;;;16.82;8.88;;;;;;;-2.45;82.89;100893.41;1716642;81;24772;-73
2021/12/07 07:58:18;;;;;;;13.78;9.10;;;;;;;-2.38;82.88;100894.52;1712888;82;20908;-73
2021/12/07 08:00:47;;;;;;;17.77;9.13;;;;;;;-2.39;82.81;100896.19;1733141;81;20939;-73
2021/12/07 08:03:14;;;;;;;17.17;9.73;;;;;;;-2.37;82.78;100891.19;1736803;81;20866;-73
2021/12/07 08:05:40;;;;;;;17.80;10.18;;;;;;;-2.37;82.76;100899.64;1721190;81;20858;-73
2021/12/07 08:08:07;;;;;;;21.02;10.82;;;;;;;-2.36;82.79;100898.84;1701584;82;20961;-73
2021/12/07 08:10:33;;;;;;;19.80;11.57;;;;;;;-2.32;82.78;100894.77;1701628;82;26272;-73
2021/12/07 08:13:03;;;;;;;19.27;11.83;;;;;;;-2.31;82.72;100893.09;1701797;82;20865;-73
2021/12/07 08:15:33;;;;;;;24.43;11.40;;;;;;;-2.29;82.76;100895.29;1702362;82;20858;-73
2021/12/07 08:18:00;;;;;;;21.80;11.10;;;;;;;-2.27;82.77;100894.95;1700852;82;20897;-73
2021/12/07 08:20:26;;;;;;;20.90;10.08;;;;;;;-2.26;82.74;100892.88;1699757;82;20941;-73
2021/12/07 08:22:54;;;;;;;28.07;13.83;;;;;;;-2.26;82.71;100889.95;1686490;84;20949;-73
2021/12/07 08:25:21;;;;;;;37.63;20.85;;;;;;;-2.24;82.68;100893.41;1700313;82;21020;-73
2021/12/07 08:27:47;;;;;;;23.67;12.73;;;;;;;-2.24;82.73;100893.41;1693105;82;21090;-73
2021/12/07 08:30:16;;;;;;;20.62;12.07;;;;;;;-2.22;82.70;100889.67;1694197;82;21146;-73
2021/12/07 08:32:45;;;;;;;30.55;13.05;;;;;;;-2.20;82.70;100893.12;1700518;82;21004;-73
2021/12/07 08:35:14;;;;;;;29.23;13.03;;;;;;;-2.19;82.67;100900.78;1698416;83;20949;-73
2021/12/07 08:37:43;;;;;;;26.42;10.82;;;;;;;-2.17;82.76;100897.91;1695154;82;20870;-73
2021/12/07 08:40:11;;;;;;;23.07;10.48;;;;;;;-2.14;82.70;100905.64;1693028;82;20986;-73
2021/12/07 08:42:38;;;;;;;22.67;9.98;;;;;;;-2.16;82.62;100904.70;1694962;83;20898;-73
2021/12/07 08:45:07;;;;;;;22.32;9.60;;;;;;;-2.17;82.58;100908.45;1701334;83;21016;-73
2021/12/07 08:47:34;;;;;;;20.10;9.63;;;;;;;-2.20;82.53;100914.25;1701170;82;20925;-73
2021/12/07 08:50:01;;;;;;;;;;;;;;;-2.21;82.60;100908.73;1704084;82;20968;-73
2021/12/07 08:52:27;;;;;;;24.05;10.78;;;;;;;-2.17;82.55;100914.38;1700978;84;20094;-73
2021/12/07 09:00:10;;;;;;;27.00;10.72;;;;;;;-2.15;82.52;100918.23;1699744;82;21056;-73
2021/12/07 09:02:36;;;;;;;21.95;9.63;;;;;;;-2.14;82.50;100918.70;1705100;83;20859;-73
2021/12/07 09:05:03;;;;;;;17.35;9.28;;;;;;;-2.13;82.53;100917.50;1707506;82;26634;-73
2021/12/07 09:07:29;;;;;;;21.90;10.72;;;;;;;-2.09;82.60;100918.48;1719544;81;20904;-73
2021/12/07 09:09:55;;;;;;;25.72;11.10;;;;;;;-2.07;82.46;100914.31;1718212;81;23567;-73
2021/12/07 09:12:22;;;;;;;17.62;9.60;;;;;;;-2.06;82.56;100924.50;1716842;83;26589;-73
2021/12/07 09:14:52;;;;;;;20.97;9.83;;;;;;;-2.04;82.55;100924.16;1719751;82;20868;-73
2021/12/07 09:17:16;;;;;;;20.27;10.25;;;;;;;-2.05;82.42;100921.57;1718567;83;20940;-73
2021/12/07 09:19:42;;;;;;;20.92;11.48;;;;;;;-2.03;82.51;100918.70;1719430;83;20896;-73
2021/12/07 09:22:09;;;;;;;18.57;10.18;;;;;;;-2.04;82.54;100921.63;1718642;81;21088;-73
2021/12/07 09:24:35;;;;;;;17.77;10.88;;;;;;;-2.01;82.53;100923.42;1717390;83;21055;-73
2021/12/07 09:27:03;;;;;;;20.00;11.95;;;;;;;-1.98;82.57;100915.94;1712010;81;21039;-73
2021/12/07 09:29:30;;;;;;;23.05;12.60;;;;;;;-1.95;82.54;100912.26;1718158;81;20944;-73
2021/12/07 09:31:56;;;;;;;20.60;12.55;;;;;;;-1.95;82.49;100902.52;1688846;83;20916;-73
2021/12/07 09:34:23;;;;;;;27.20;12.00;;;;;;;-1.95;82.49;100902.52;1708067;82;20939;-73
2021/12/07 09:36:49;;;;;;;21.15;12.23;;;;;;;-1.92;82.60;100897.17;1667656;84;20928;-73
2021/12/07 09:39:18;;;;;;;18.45;11.50;;;;;;;-1.85;82.70;100896.61;1708888;81;20900;-73
2021/12/07 09:41:44;;;;;;;17.95;10.72;;;;;;;-1.80;82.59;100891.72;1718838;81;20881;-73
2021/12/07 09:44:11;;;;;;;21.73;11.85;;;;;;;-1.76;82.52;100894.83;1719322;81;20894;-73
2021/12/07 09:46:44;;;;;;;20.37;11.12;;;;;;;-1.78;82.43;100890.97;1719089;81;20881;-73
2021/12/07 09:49:11;;;;;;;22.85;13.25;;;;;;;-1.77;82.49;100890.56;1718932;81;20924;-73
2021/12/07 09:51:39;;;;;;;16.45;11.48;;;;;;;-1.76;82.46;100880.89;1719449;81;20900;-73
2021/12/07 09:54:09;;;;;;;17.75;11.63;;;;;;;-1.73;82.50;100883.53;1712738;81;20921;-73
2021/12/07 09:56:37;;;;;;;16.95;10.28;;;;;;;-1.70;82.49;100881.98;1718410;81;20912;-73
2021/12/07 09:59:06;;;;;;;19.25;11.45;;;;;;;-1.68;82.50;100880.38;1690441;83;20980;-73
2021/12/07 10:01:33;;;;;;;20.60;12.93;;;;;;;-1.67;82.46;100877.43;1699369;81;21318;-73
2021/12/07 10:03:59;;;;;;;;;;;;;;;-1.62;82.58;100872.53;1721910;81;20861;-73
2021/12/07 10:06:25;;;;;;;;;;;;;;;-1.59;82.48;100876.05;1711390;82;20109;-73
2021/12/07 10:08:51;;;;;;;;;;;;;;;-1.57;82.48;100886.25;1702604;82;20196;-73
2021/12/07 10:11:18;;;;;;;21.40;12.18;;;;;;;-1.54;82.45;100878.31;1699389;82;20326;-73
2021/12/07 10:13:47;;;;;;;32.05;14.93;;;;;;;-1.50;82.59;100877.63;1699660;82;21064;-73
2021/12/07 10:16:17;;;;;;;27.52;15.25;;;;;;;-1.48;82.50;100878.94;1701253;82;20906;-73
2021/12/07 10:18:44;;;;;;;28.92;15.40;;;;;;;-1.46;82.48;100876.06;1699426;82;21091;-73
2021/12/07 10:21:23;;;;;;;25.80;14.98;;;;;;;-1.47;82.46;100874.33;1699333;84;21103;-73
2021/12/07 10:24:07;;;;;;;27.22;14.30;;;;;;;-1.44;82.51;100876.58;1699485;82;21017;-73
2021/12/07 10:26:36;;;;;;;25.70;14.20;;;;;;;-1.39;82.52;100874.20;1684809;82;21410;-73
2021/12/07 10:29:16;;;;;;;32.33;17.23;;;;;;;-1.35;82.59;100870.57;1691104;82;20901;-73
2021/12/07 10:31:49;;;;;;;26.40;15.55;;;;;;;-1.33;82.41;100869.36;1696896;82;20941;-73
2021/12/07 10:34:24;;;;;;;26.77;14.78;;;;;;;-1.35;82.49;100865.50;1696106;82;20953;-73
2021/12/07 10:36:56;;;;;;;25.90;14.95;;;;;;;-1.35;82.42;100861.69;1700150;82;20905;-73
2021/12/07 10:39:30;;;;;;;23.98;14.58;;;;;;;-1.31;82.48;100869.41;1697885;82;20882;-73
2021/12/07 10:42:07;;;;;;;24.60;15.83;;;;;;;-1.28;82.49;100866.98;1681068;82;21533;-73
2021/12/07 10:44:39;;;;;;;25.43;14.70;;;;;;;-1.23;82.55;100868.02;1690931;84;21048;-73
2021/12/07 10:47:12;;;;;;;23.38;14.95;;;;;;;-1.24;82.42;100864.61;1699067;82;21048;-73
2021/12/07 10:49:51;;;;;;;25.57;14.03;;;;;;;-1.22;82.45;100868.07;1693270;82;21507;-73
2021/12/07 10:52:40;;;;;;;30.52;15.45;;;;;;;-1.18;82.53;100859.76;1736466;82;20939;-73
2021/12/07 10:55:17;;;;;;;23.52;14.53;;;;;;;-1.14;82.48;100851.84;1713191;82;20913;-73
2021/12/07 10:57:56;;;;;;;24.52;14.73;;;;;;;-1.14;82.48;100859.45;1699571;83;21044;-73
2021/12/07 11:00:30;;;;;;;28.02;15.68;;;;;;;-1.11;82.47;100858.30;1694089;84;20913;-73
2021/12/07 11:03:07;;;;;;;29.40;16.55;;;;;;;-1.16;82.33;100856.00;1701266;82;20893;-73
2021/12/07 11:05:38;;;;;;;25.57;14.35;;;;;;;-1.18;82.37;100855.09;1687470;83;20961;-73
2021/12/07 11:08:09;;;;;;;25.82;14.85;;;;;;;-1.15;82.43;100855.20;1711202;83;20995;-73
2021/12/07 11:10:40;;;;;;;23.57;14.65;;;;;;;-1.17;82.38;100856.41;1716989;83;21071;-73
2021/12/07 11:13:16;;;;;;;28.65;14.47;;;;;;;-1.19;82.35;100859.30;1702967;83;21020;-73
2021/12/07 11:15:54;;;;;;;26.05;16.02;;;;;;;-1.22;82.22;100858.33;1694348;83;20905;-73
2021/12/07 11:18:27;;;;;;;28.80;14.98;;;;;;;-1.24;82.29;100865.88;1691319;84;20916;-73
2021/12/07 11:20:58;;;;;;;23.87;14.33;;;;;;;-1.24;82.32;100868.42;1717134;83;20900;-73
2021/12/07 11:23:29;;;;;;;27.95;16.35;;;;;;;-1.21;82.40;100868.53;1714432;83;20920;-73
2021/12/07 11:31:26;;;;;;;33.65;16.25;;;;;;;-1.17;82.31;100868.23;1710709;83;21019;-73
2021/12/07 11:33:57;;;;;;;28.57;15.75;;;;;;;-1.14;82.37;100867.07;1719783;82;20944;-73
2021/12/07 11:36:29;;;;;;;28.27;16.57;;;;;;;-1.10;82.38;100866.37;1710533;83;20975;-73
2021/12/07 11:38:57;;;;;;;30.77;17.05;;;;;;;-1.09;82.36;100864.29;1719883;82;20909;-73
2021/12/07 11:41:32;;;;;;;28.35;16.75;;;;;;;-1.07;82.33;100867.74;1719734;83;20908;-73
2021/12/07 11:44:05;;;;;;;31.27;18.00;;;;;;;-1.06;82.33;100868.20;1717472;83;20912;-73
2021/12/07 11:46:34;;;;;;;34.38;18.50;;;;;;;-1.10;82.27;100867.64;1718280;83;20970;-73
2021/12/07 11:49:14;;;;;;;36.63;19.15;;;;;;;-1.11;82.26;100864.23;1719782;83;20944;-73
2021/12/07 11:51:44;;;;;;;39.42;18.40;;;;;;;-1.14;82.22;100866.67;1719263;83;20972;-73
2021/12/07 11:54:15;;;;;;;30.82;18.30;;;;;;;-1.16;82.21;100861.08;1707902;83;21031;-73
2021/12/07 11:56:44;;;;;;;37.20;18.82;;;;;;;-1.12;82.34;100857.84;1718847;83;21015;-73
2021/12/07 11:59:12;;;;;;;38.78;20.35;;;;;;;-1.11;82.26;100857.89;1720001;83;20952;-73
2021/12/07 12:01:39;;;;;;;33.48;20.00;;;;;;;-1.10;82.27;100860.03;1719840;83;20909;-73
2021/12/07 12:04:06;;;;;;;37.93;19.67;;;;;;;-1.16;82.13;100861.94;1722024;82;20937;-73
2021/12/07 12:06:32;;;;;;;33.95;19.40;;;;;;;-1.19;82.14;100858.03;1714798;82;20913;-73
2021/12/07 12:09:00;;;;;;;36.75;19.90;;;;;;;-1.21;82.15;100860.92;1698117;84;20945;-73
2021/12/07 12:11:43;;;;;;;35.70;19.62;;;;;;;-1.21;82.19;100856.25;1695008;84;21370;-73
2021/12/07 12:14:47;;;;;;;36.95;21.33;;;;;;;-1.22;82.22;100856.66;1694011;84;20929;-73
2021/12/07 12:17:52;;;;;;;39.38;21.20;;;;;;;-1.24;82.09;100851.06;1679081;82;21730;-73
2021/12/07 12:21:09;;;;;;;31.45;18.57;;;;;;;-1.29;82.06;100850.04;1687984;84;20874;-73
2021/12/07 12:24:10;;;;;;;37.95;19.92;;;;;;;-1.28;82.20;100845.02;1689416;84;20952;-73
2021/12/07 12:26:37;;;;;;;36.73;19.92;;;;;;;-1.29;82.17;100837.36;1652812;84;20955;-73
2021/12/07 12:29:23;;;;;;;39.33;20.77;;;;;;;-1.31;82.05;100841.11;1655943;84;20914;-73
2021/12/07 12:31:54;;;;;;;36.17;18.95;;;;;;;-1.34;82.02;100844.40;1616169;87;20887;-73
2021/12/07 12:34:29;;;;;;;38.38;20.48;;;;;;;-1.34;82.13;100845.67;1637556;86;20935;-73
2021/12/07 12:37:07;;;;;;;43.08;20.65;;;;;;;-1.35;82.13;100845.61;1656941;85;20965;-73
2021/12/07 12:39:59;;;;;;;40.67;20.95;;;;;;;-1.38;82.08;100842.56;1665522;85;20892;-73
2021/12/07 12:42:36;;;;;;;37.78;20.23;;;;;;;-1.39;82.08;100844.64;1662257;86;20941;-73
2021/12/07 12:45:38;;;;;;;38.70;19.85;;;;;;;-1.42;82.09;100841.98;1641185;87;20961;-73
2021/12/07 12:48:20;;;;;;;40.23;20.82;;;;;;;-1.43;82.11;100845.34;1637114;86;21453;-73
2021/12/07 12:50:51;;;;;;;41.42;21.65;;;;;;;-1.43;82.09;100845.73;1668498;86;21427;-72
2021/12/07 12:53:31;;;;;;;40.25;20.85;;;;;;;-1.40;82.21;100848.39;1667820;85;20957;-73
2021/12/07 12:56:03;;;;;;;39.63;20.05;;;;;;;-1.39;82.13;100838.70;1663299;84;20910;-73
2021/12/07 12:58:37;;;;;;;39.25;20.20;;;;;;;-1.42;82.09;100843.27;1661104;85;21048;-73
2021/12/07 13:01:20;;;;;;;37.93;21.45;;;;;;;-1.43;82.07;100850.41;1664238;86;21445;-73
2021/12/07 13:04:05;;;;;;;45.98;23.62;;;;;;;-1.43;82.08;100847.88;1687938;84;21118;-73